Accedi per prenotare

Caricamento...

Situazione Metar e Taf aeroporto Pisa - Effemeridi Aeroporto Lucca

[Source: ADDS]
METAR
LIRP 121545Z 10008KT 9999 FEW025 06/05 Q1003 NOSIG =
LIRP 121100Z 1212/1312 13007KT 8000 FEW030 SCT060 TEMPO 1217/1224 5000 BR BECMG 1301/1303 3000 RA BR BKN015
TAF
LIRP 121100Z 1212/1312 13007KT 8000 FEW030 SCT060 TEMPO 1217/1224 5000 BR BECMG 1301/1303 3000 RA BR BKN015 =
SR / SS: 06:41 / 15:45 UTC (Effemeridi LIQL 2019-12-12)